createdAt,value
2022-11-18T00:01:25.531Z,8.30
2022-11-18T00:03:54.961Z,8.30
2022-11-18T00:06:24.410Z,8.30
2022-11-18T00:08:52.912Z,8.40
2022-11-18T00:11:36.299Z,8.30
2022-11-18T00:14:20.398Z,8.30
2022-11-18T00:16:49.836Z,8.20
2022-11-18T00:19:20.006Z,8.10
2022-11-18T00:21:48.411Z,8.10
2022-11-18T00:24:16.809Z,8.10
2022-11-18T00:26:44.892Z,8.10
2022-11-18T00:29:13.621Z,8.10
2022-11-18T00:31:41.659Z,8.00
2022-11-18T00:34:13.030Z,7.90
2022-11-18T00:36:43.469Z,7.90
2022-11-18T00:39:12.669Z,7.90
2022-11-18T00:41:58.383Z,7.90
2022-11-18T00:44:26.610Z,8.00
2022-11-18T00:46:54.708Z,8.00
2022-11-18T00:49:22.740Z,8.10
2022-11-18T00:51:52.215Z,8.10
2022-11-18T00:54:20.413Z,8.20
2022-11-18T00:56:48.479Z,8.20
2022-11-18T00:59:17.075Z,8.20
2022-11-18T01:01:45.562Z,8.30
2022-11-18T01:04:13.937Z,8.20
2022-11-18T01:06:42.051Z,8.30
2022-11-18T01:09:11.448Z,8.30
2022-11-18T01:11:57.095Z,8.30
2022-11-18T01:14:25.775Z,8.30
2022-11-18T01:16:56.158Z,8.40
2022-11-18T01:19:24.926Z,8.40
2022-11-18T01:21:53.027Z,8.50
2022-11-18T01:24:22.423Z,8.50
2022-11-18T01:26:50.486Z,8.50
2022-11-18T01:29:18.963Z,8.50
2022-11-18T01:32:09.117Z,8.50
2022-11-18T01:34:35.385Z,8.50
2022-11-18T01:37:03.426Z,8.70
2022-11-18T01:39:33.001Z,8.60
2022-11-18T01:42:01.014Z,8.70
2022-11-18T01:45:20.757Z,8.70
2022-11-18T01:47:53.063Z,8.60
2022-11-18T01:50:23.000Z,8.60
2022-11-18T01:52:52.221Z,8.70
2022-11-18T01:55:25.638Z,8.70
2022-11-18T01:58:03.032Z,8.70
2022-11-18T02:00:31.152Z,8.70
2022-11-18T02:03:00.095Z,8.60
2022-11-18T02:05:29.225Z,8.60
2022-11-18T02:07:57.773Z,8.60
2022-11-18T02:10:27.139Z,8.60
2022-11-18T02:12:56.309Z,8.50
2022-11-18T02:15:34.599Z,8.50
2022-11-18T02:18:10.234Z,8.50
2022-11-18T02:20:41.965Z,8.50
2022-11-18T02:24:00.081Z,8.50
2022-11-18T02:26:53.642Z,8.50
2022-11-18T02:29:26.248Z,8.60
2022-11-18T02:31:59.631Z,8.60
2022-11-18T02:34:40.949Z,8.60
2022-11-18T02:37:16.557Z,8.70
2022-11-18T02:39:49.715Z,8.60
2022-11-18T02:42:18.279Z,8.70
2022-11-18T02:44:53.823Z,8.70
2022-11-18T02:47:23.760Z,8.60
2022-11-18T02:49:56.187Z,8.60
2022-11-18T02:52:26.786Z,8.60
2022-11-18T02:54:56.806Z,8.60
2022-11-18T02:57:27.336Z,8.60
2022-11-18T02:59:56.818Z,8.60
2022-11-18T03:07:49.828Z,8.60
2022-11-18T03:10:18.723Z,8.60
2022-11-18T03:12:53.432Z,8.60
2022-11-18T03:15:34.051Z,8.60
2022-11-18T03:18:12.235Z,8.60
2022-11-18T03:20:48.783Z,8.60
2022-11-18T03:23:23.857Z,8.60
2022-11-18T03:25:55.766Z,8.60
2022-11-18T03:28:30.925Z,8.60
2022-11-18T03:31:04.550Z,8.60
2022-11-18T03:33:36.201Z,8.60
2022-11-18T03:36:07.059Z,8.60
2022-11-18T03:38:39.227Z,8.60
2022-11-18T03:41:11.624Z,8.70
2022-11-18T03:43:43.532Z,8.60
2022-11-18T03:46:17.780Z,8.60
2022-11-18T03:48:51.177Z,8.70
2022-11-18T03:51:23.263Z,8.70
2022-11-18T03:53:57.800Z,8.70
2022-11-18T03:56:31.289Z,8.70
2022-11-18T03:59:05.699Z,8.70
2022-11-18T04:01:41.235Z,8.70
2022-11-18T04:04:10.483Z,8.70
2022-11-18T04:06:44.129Z,8.70
2022-11-18T04:09:16.584Z,8.70
2022-11-18T04:12:04.451Z,8.70
2022-11-18T04:14:34.515Z,8.70
2022-11-18T04:17:09.102Z,8.70
2022-11-18T04:19:37.487Z,8.70
2022-11-18T04:22:05.586Z,8.70
2022-11-18T04:24:33.635Z,8.70
2022-11-18T04:27:02.674Z,8.70
2022-11-18T04:29:31.226Z,8.70
2022-11-18T04:31:59.505Z,8.60
2022-11-18T04:34:29.333Z,8.60
2022-11-18T04:36:57.518Z,8.60
2022-11-18T04:39:25.640Z,8.60
2022-11-18T04:41:56.545Z,8.60
2022-11-18T04:44:25.871Z,8.60
2022-11-18T04:46:54.660Z,8.70
2022-11-18T04:49:23.565Z,8.70
2022-11-18T04:51:53.771Z,8.80
2022-11-18T04:54:22.723Z,8.70
2022-11-18T04:56:50.902Z,8.70
2022-11-18T04:59:21.412Z,8.70
2022-11-18T05:01:50.021Z,8.70
2022-11-18T05:04:20.303Z,8.70
2022-11-18T05:06:48.798Z,8.70
2022-11-18T05:09:19.285Z,8.60
2022-11-18T05:12:04.910Z,8.60
2022-11-18T05:14:33.448Z,8.60
2022-11-18T05:17:03.264Z,8.60
2022-11-18T05:19:31.436Z,8.60
2022-11-18T05:21:59.725Z,8.50
2022-11-18T05:24:29.120Z,8.50
2022-11-18T05:26:57.460Z,8.40
2022-11-18T05:29:26.300Z,8.50
2022-11-18T05:31:54.374Z,8.50
2022-11-18T05:34:22.595Z,8.60
2022-11-18T05:36:50.865Z,8.60
2022-11-18T05:39:19.942Z,8.60
2022-11-18T05:42:06.747Z,8.60
2022-11-18T05:44:34.780Z,8.60
2022-11-18T05:47:02.896Z,8.60
2022-11-18T05:49:30.948Z,8.60
2022-11-18T05:51:59.044Z,8.60
2022-11-18T05:54:27.623Z,8.50
2022-11-18T05:56:57.119Z,8.50
2022-11-18T05:59:25.128Z,8.50
2022-11-18T06:01:58.966Z,8.40
2022-11-18T06:04:33.188Z,8.30
2022-11-18T06:07:07.211Z,8.30
2022-11-18T06:09:39.330Z,8.20
2022-11-18T06:12:10.358Z,8.10
2022-11-18T06:14:43.246Z,8.00
2022-11-18T06:17:15.668Z,8.00
2022-11-18T06:19:43.788Z,7.90
2022-11-18T06:22:12.152Z,7.90
2022-11-18T06:24:40.731Z,7.80
2022-11-18T06:27:10.318Z,7.80
2022-11-18T06:29:38.388Z,7.80
2022-11-18T06:32:06.736Z,7.70
2022-11-18T06:34:41.038Z,7.80
2022-11-18T06:37:16.853Z,7.80
2022-11-18T06:39:45.374Z,7.70
2022-11-18T06:42:35.398Z,7.70
2022-11-18T06:45:02.645Z,7.70
2022-11-18T06:47:30.753Z,7.70
2022-11-18T06:49:58.826Z,7.80
2022-11-18T06:52:26.927Z,7.70
2022-11-18T06:54:54.954Z,7.70
2022-11-18T06:57:24.385Z,7.60
2022-11-18T06:59:53.849Z,7.60
2022-11-18T07:02:24.553Z,7.60
2022-11-18T07:04:52.599Z,7.60
2022-11-18T07:07:20.737Z,7.50
2022-11-18T07:09:48.819Z,7.50
2022-11-18T07:12:16.833Z,7.50
2022-11-18T07:14:46.381Z,7.50
2022-11-18T07:17:14.718Z,7.50
2022-11-18T07:19:42.731Z,7.50
2022-11-18T07:22:10.737Z,7.50
2022-11-18T07:24:38.978Z,7.50
2022-11-18T07:27:07.009Z,7.50
2022-11-18T07:29:35.152Z,7.50
2022-11-18T07:32:04.571Z,7.50
2022-11-18T07:34:32.622Z,7.50
2022-11-18T07:37:00.600Z,7.50
2022-11-18T07:39:28.864Z,7.50
2022-11-18T07:41:56.968Z,7.50
2022-11-18T07:44:25.015Z,7.50
2022-11-18T07:46:53.075Z,7.50
2022-11-18T07:49:22.480Z,7.60
2022-11-18T07:51:50.751Z,7.60
2022-11-18T07:54:18.918Z,7.60
2022-11-18T07:56:47.014Z,7.70
2022-11-18T07:59:15.038Z,7.60
2022-11-18T08:01:43.160Z,7.60
2022-11-18T08:04:13.232Z,7.60
2022-11-18T08:06:42.748Z,7.70
2022-11-18T08:09:11.323Z,7.70
2022-11-18T08:11:40.891Z,7.70
2022-11-18T08:14:09.077Z,7.70
2022-11-18T08:16:37.209Z,7.70
2022-11-18T08:19:05.281Z,7.70
2022-11-18T08:21:33.339Z,7.70
2022-11-18T08:24:02.787Z,7.60
2022-11-18T08:26:30.872Z,7.70
2022-11-18T08:28:59.066Z,7.70
2022-11-18T08:31:29.003Z,7.70
2022-11-18T08:33:57.245Z,7.70
2022-11-18T08:36:27.386Z,7.70
2022-11-18T08:38:56.786Z,7.70
2022-11-18T08:41:32.373Z,7.70
2022-11-18T08:44:00.944Z,7.70
2022-11-18T08:46:29.178Z,7.80
2022-11-18T08:48:57.305Z,7.70
2022-11-18T08:51:25.700Z,7.80
2022-11-18T08:53:53.824Z,7.80
2022-11-18T08:56:23.857Z,7.80
2022-11-18T08:58:54.382Z,7.80
2022-11-18T09:01:22.627Z,7.90
2022-11-18T09:03:51.041Z,7.90
2022-11-18T09:06:20.891Z,7.90
2022-11-18T09:08:49.041Z,7.90
2022-11-18T09:11:18.808Z,7.90
2022-11-18T09:14:32.615Z,8.00
2022-11-18T09:16:36.742Z,8.00
2022-11-18T09:19:24.882Z,8.10
2022-11-18T09:21:55.316Z,8.10
2022-11-18T09:24:23.379Z,8.20
2022-11-18T09:26:53.563Z,8.30
2022-11-18T09:29:25.673Z,8.30
2022-11-18T09:31:55.522Z,8.40
2022-11-18T09:34:24.213Z,8.50
2022-11-18T09:36:55.926Z,8.60
2022-11-18T09:39:24.746Z,8.70
2022-11-18T09:42:02.261Z,8.80
2022-11-18T09:44:45.440Z,8.90
2022-11-18T09:47:24.859Z,9.00
2022-11-18T09:49:55.229Z,9.10
2022-11-18T09:52:32.717Z,9.20
2022-11-18T09:55:07.353Z,9.30
2022-11-18T09:57:39.644Z,9.40
2022-11-18T10:00:14.895Z,9.40
2022-11-18T10:03:01.850Z,9.50
2022-11-18T10:05:31.378Z,9.60
2022-11-18T10:08:16.450Z,9.70
2022-11-18T10:10:52.769Z,9.80
2022-11-18T10:13:33.545Z,9.90
2022-11-18T10:16:10.719Z,10.00
2022-11-18T10:19:04.835Z,10.10
2022-11-18T10:21:43.345Z,10.20
2022-11-18T10:24:18.775Z,10.10
2022-11-18T10:26:47.254Z,10.20
2022-11-18T10:29:15.292Z,10.20
2022-11-18T10:32:04.587Z,10.10
2022-11-18T10:34:36.114Z,10.10
2022-11-18T10:37:06.449Z,10.10
2022-11-18T10:39:34.861Z,10.20
2022-11-18T10:42:05.042Z,10.30
2022-11-18T10:44:36.285Z,10.40
2022-11-18T10:47:27.594Z,10.60
2022-11-18T10:49:59.035Z,10.70
2022-11-18T10:52:28.968Z,10.80
2022-11-18T10:55:23.405Z,11.00
2022-11-18T10:58:01.795Z,11.10
2022-11-18T11:00:46.787Z,11.20
2022-11-18T11:03:32.723Z,11.30
2022-11-18T11:06:33.619Z,11.30
2022-11-18T11:09:08.442Z,11.30
2022-11-18T11:11:40.020Z,11.40
2022-11-18T11:14:17.264Z,11.40
2022-11-18T11:16:51.681Z,11.30
2022-11-18T11:19:24.222Z,11.30
2022-11-18T11:21:53.964Z,11.20
2022-11-18T11:24:25.983Z,11.20
2022-11-18T11:30:10.316Z,11.40
2022-11-18T11:32:53.550Z,11.50
2022-11-18T11:35:24.815Z,11.40
2022-11-18T11:37:58.844Z,11.40
2022-11-18T11:40:34.831Z,11.40
2022-11-18T11:43:25.268Z,11.40
2022-11-18T11:46:17.816Z,11.30
2022-11-18T11:48:57.805Z,11.30
2022-11-18T11:51:33.440Z,11.30
2022-11-18T11:54:39.706Z,11.30
2022-11-18T11:57:19.923Z,11.30
2022-11-18T11:59:59.748Z,11.40
2022-11-18T12:02:50.358Z,11.40
2022-11-18T12:05:25.426Z,11.50
2022-11-18T12:07:57.635Z,11.60
2022-11-18T12:10:35.370Z,11.60
2022-11-18T12:13:22.076Z,11.60
2022-11-18T12:15:57.077Z,11.70
2022-11-18T12:18:30.585Z,11.60
2022-11-18T12:20:58.798Z,11.70
2022-11-18T12:23:28.228Z,11.70
2022-11-18T12:26:06.710Z,11.60
2022-11-18T12:28:37.983Z,11.50
2022-11-18T12:31:29.330Z,11.50
2022-11-18T12:34:00.081Z,11.60
2022-11-18T12:36:29.236Z,11.50
2022-11-18T12:38:58.397Z,11.50
2022-11-18T12:42:13.815Z,11.60
2022-11-18T12:44:43.303Z,11.60
2022-11-18T12:47:12.595Z,11.60
2022-11-18T12:50:12.738Z,11.60
2022-11-18T12:52:52.652Z,11.40
2022-11-18T12:55:27.714Z,11.30
2022-11-18T12:57:57.125Z,11.30
2022-11-18T13:00:52.274Z,11.30
2022-11-18T13:03:26.005Z,11.30
2022-11-18T13:06:06.634Z,11.30
2022-11-18T13:08:35.230Z,11.40
2022-11-18T13:11:28.998Z,11.40
2022-11-18T13:14:16.629Z,11.50
2022-11-18T13:17:03.162Z,11.60
2022-11-18T13:19:31.199Z,11.50
2022-11-18T13:22:18.200Z,11.50
2022-11-18T13:24:48.081Z,11.50
2022-11-18T13:27:27.201Z,11.30
2022-11-18T13:30:04.219Z,11.40
2022-11-18T13:32:32.354Z,11.30
2022-11-18T13:35:11.960Z,11.20
2022-11-18T13:37:51.237Z,11.10
2022-11-18T13:40:25.119Z,11.10
2022-11-18T13:42:53.200Z,11.10
2022-11-18T13:45:25.141Z,11.10
2022-11-18T13:47:55.728Z,11.10
2022-11-18T13:50:27.850Z,11.10
2022-11-18T13:53:07.081Z,11.10
2022-11-18T13:55:40.558Z,11.10
2022-11-18T13:58:28.131Z,11.10
2022-11-18T14:01:00.562Z,11.10
2022-11-18T14:03:33.676Z,11.10
2022-11-18T14:06:02.483Z,11.20
2022-11-18T14:08:32.019Z,11.30
2022-11-18T14:11:00.897Z,11.30
2022-11-18T14:13:30.442Z,11.20
2022-11-18T14:16:01.879Z,11.10
2022-11-18T14:18:33.539Z,11.00
2022-11-18T14:21:02.908Z,10.90
2022-11-18T14:23:33.452Z,10.70
2022-11-18T14:26:03.757Z,10.60
2022-11-18T14:28:34.016Z,10.50
2022-11-18T14:31:22.729Z,10.40
2022-11-18T14:34:06.921Z,10.30
2022-11-18T14:36:34.966Z,10.20
2022-11-18T14:41:51.044Z,10.10
2022-11-18T14:44:20.502Z,10.00
2022-11-18T14:46:52.333Z,10.00
2022-11-18T14:49:23.561Z,10.00
2022-11-18T14:51:52.279Z,9.90
2022-11-18T14:54:26.505Z,9.90
2022-11-18T14:56:57.645Z,9.90
2022-11-18T14:59:25.907Z,9.80
2022-11-18T15:01:56.450Z,9.80
2022-11-18T15:04:25.332Z,9.70
2022-11-18T15:06:53.610Z,9.60
2022-11-18T15:09:21.925Z,9.60
2022-11-18T15:11:50.014Z,9.50
2022-11-18T15:14:18.223Z,9.50
2022-11-18T15:16:46.572Z,9.40
2022-11-18T15:19:17.338Z,9.30
2022-11-18T15:21:46.369Z,9.40
2022-11-18T15:24:14.468Z,9.30
2022-11-18T15:26:44.453Z,9.30
2022-11-18T15:29:17.357Z,9.30
2022-11-18T15:31:45.532Z,9.30
2022-11-18T15:34:15.107Z,9.30
2022-11-18T15:36:43.174Z,9.20
2022-11-18T15:39:11.812Z,9.20
2022-11-18T15:41:41.445Z,9.20
2022-11-18T15:44:11.916Z,9.30
2022-11-18T15:46:40.384Z,9.40
2022-11-18T15:49:10.004Z,9.50
2022-11-18T15:51:40.287Z,9.60
2022-11-18T15:54:08.333Z,9.70
2022-11-18T15:56:37.283Z,9.70
2022-11-18T15:59:07.140Z,9.70
2022-11-18T16:01:37.378Z,9.80
2022-11-18T16:04:06.170Z,9.80
2022-11-18T16:06:34.248Z,9.90
2022-11-18T16:09:04.676Z,9.90
2022-11-18T16:11:50.814Z,9.80
2022-11-18T16:14:20.761Z,9.80
2022-11-18T16:16:50.825Z,9.80
2022-11-18T16:19:20.837Z,9.90
2022-11-18T16:21:50.968Z,9.80
2022-11-18T16:24:22.125Z,9.70
2022-11-18T16:26:51.023Z,9.80
2022-11-18T16:29:20.834Z,9.70
2022-11-18T16:31:52.397Z,9.70
2022-11-18T16:34:22.601Z,9.70
2022-11-18T16:36:53.083Z,9.70
2022-11-18T16:39:25.727Z,9.70
2022-11-18T16:41:55.316Z,9.80
2022-11-18T16:44:23.747Z,9.80
2022-11-18T16:46:53.200Z,9.70
2022-11-18T16:49:22.801Z,9.70
2022-11-18T16:51:52.805Z,9.60
2022-11-18T16:54:24.243Z,9.60
2022-11-18T16:56:53.744Z,9.60
2022-11-18T16:59:23.396Z,9.60
2022-11-18T17:01:52.413Z,9.60
2022-11-18T17:04:21.212Z,9.50
2022-11-18T17:06:49.580Z,9.50
2022-11-18T17:09:20.134Z,9.50
2022-11-18T17:11:50.134Z,9.50
2022-11-18T17:14:19.520Z,9.50
2022-11-18T17:16:47.642Z,9.40
2022-11-18T17:19:16.742Z,9.50
2022-11-18T17:21:45.596Z,9.30
2022-11-18T17:24:16.078Z,9.40
2022-11-18T17:26:45.889Z,9.30
2022-11-18T17:29:16.071Z,9.30
2022-11-18T17:31:44.543Z,9.40
2022-11-18T17:34:13.941Z,9.40
2022-11-18T17:36:42.501Z,9.50
2022-11-18T17:39:12.037Z,9.50
2022-11-18T17:41:58.317Z,9.50
2022-11-18T17:44:28.722Z,9.50
2022-11-18T17:46:56.789Z,9.60
2022-11-18T17:49:24.879Z,9.60
2022-11-18T17:51:52.990Z,9.60
2022-11-18T17:54:22.315Z,9.40
2022-11-18T17:56:52.259Z,9.30
2022-11-18T17:59:20.649Z,9.40
2022-11-18T18:01:55.667Z,9.40
2022-11-18T18:04:25.598Z,9.50
2022-11-18T18:06:55.064Z,9.60
2022-11-18T18:09:30.089Z,9.60
2022-11-18T18:11:59.806Z,9.60
2022-11-18T18:14:26.846Z,9.50
2022-11-18T18:16:56.381Z,9.30
2022-11-18T18:19:25.299Z,9.30
2022-11-18T18:21:54.160Z,9.20
2022-11-18T18:24:22.623Z,9.20
2022-11-18T18:26:51.106Z,9.30
2022-11-18T18:29:19.194Z,9.40
2022-11-18T18:31:47.256Z,9.40
2022-11-18T18:34:17.294Z,9.30
2022-11-18T18:36:45.788Z,9.20
2022-11-18T18:39:13.867Z,9.20
2022-11-18T18:41:41.895Z,9.10
2022-11-18T18:44:15.224Z,9.00
2022-11-18T18:46:45.321Z,8.90
2022-11-18T18:49:14.853Z,8.90
2022-11-18T18:51:46.133Z,8.90
2022-11-18T18:54:15.827Z,8.80
2022-11-18T18:56:44.047Z,8.80
2022-11-18T18:59:12.475Z,8.80
2022-11-18T19:01:40.610Z,8.80
2022-11-18T19:04:12.431Z,8.80
2022-11-18T19:06:59.743Z,8.80
2022-11-18T19:09:29.974Z,8.70
2022-11-18T19:12:15.677Z,8.70
2022-11-18T19:14:43.869Z,8.70
2022-11-18T19:17:12.970Z,8.80
2022-11-18T19:19:59.885Z,8.70
2022-11-18T19:22:31.274Z,8.70
2022-11-18T19:25:01.948Z,8.60
2022-11-18T19:27:30.236Z,8.60
2022-11-18T19:29:58.398Z,8.60
2022-11-18T19:32:26.482Z,8.50
2022-11-18T19:34:54.535Z,8.50
2022-11-18T19:37:22.717Z,8.50
2022-11-18T19:39:50.837Z,8.50
2022-11-18T19:42:20.245Z,8.40
2022-11-18T19:44:48.304Z,8.40
2022-11-18T19:47:16.418Z,8.30
2022-11-18T19:49:44.579Z,8.30
2022-11-18T19:52:12.879Z,8.40
2022-11-18T19:54:41.045Z,8.30
2022-11-18T19:57:09.029Z,8.30
2022-11-18T19:59:38.740Z,8.20
2022-11-18T20:02:07.413Z,8.10
2022-11-18T20:04:35.793Z,8.00
2022-11-18T20:07:03.914Z,7.80
2022-11-18T20:09:32.364Z,7.70
2022-11-18T20:12:00.525Z,7.70
2022-11-18T20:14:28.678Z,7.80
2022-11-18T20:16:58.329Z,7.70
2022-11-18T20:19:26.459Z,7.60
2022-11-18T20:21:54.702Z,7.50
2022-11-18T20:24:22.810Z,7.50
2022-11-18T20:26:50.867Z,7.30
2022-11-18T20:29:19.131Z,7.20
2022-11-18T20:31:47.358Z,7.20
2022-11-18T20:34:16.744Z,7.10
2022-11-18T20:36:46.467Z,7.10
2022-11-18T20:39:16.063Z,6.90
2022-11-18T20:42:04.380Z,6.70
2022-11-18T20:44:32.512Z,6.60
2022-11-18T20:47:00.659Z,6.50
2022-11-18T20:49:30.150Z,6.50
2022-11-18T20:51:58.172Z,6.40
2022-11-18T20:54:26.653Z,6.50
2022-11-18T20:56:54.688Z,6.40
2022-11-18T20:59:22.705Z,6.40
2022-11-18T21:01:50.768Z,6.30
2022-11-18T21:04:18.759Z,6.30
2022-11-18T21:06:48.450Z,6.20
2022-11-18T21:09:17.606Z,6.30
2022-11-18T21:11:45.760Z,6.30
2022-11-18T21:14:23.929Z,6.20
2022-11-18T21:16:53.322Z,6.20
2022-11-18T21:19:21.634Z,6.20
2022-11-18T21:21:52.631Z,6.20
2022-11-18T21:24:23.040Z,6.20
2022-11-18T21:26:54.439Z,6.20
2022-11-18T21:29:23.827Z,6.10
2022-11-18T21:31:52.601Z,6.20
2022-11-18T21:34:21.581Z,6.20
2022-11-18T21:36:54.597Z,6.10
2022-11-18T21:39:23.684Z,6.00
2022-11-18T21:41:55.834Z,6.00
2022-11-18T21:44:24.924Z,6.10
2022-11-18T21:46:53.083Z,6.20
2022-11-18T21:49:21.650Z,6.10
2022-11-18T21:51:51.521Z,6.00
2022-11-18T21:54:19.626Z,5.90
2022-11-18T21:56:47.659Z,5.80
2022-11-18T21:59:15.734Z,5.80
2022-11-18T22:01:43.899Z,5.70
2022-11-18T22:04:32.763Z,5.60
2022-11-18T22:07:02.320Z,5.50
2022-11-18T22:09:36.108Z,5.50
2022-11-18T22:12:06.445Z,5.40
2022-11-18T22:14:34.425Z,5.40
2022-11-18T22:17:02.437Z,5.40
2022-11-18T22:19:30.736Z,5.40
2022-11-18T22:21:58.723Z,5.30
2022-11-18T22:24:28.100Z,5.20
2022-11-18T22:26:56.161Z,5.20
2022-11-18T22:29:26.011Z,5.20
2022-11-18T22:31:54.329Z,5.10
2022-11-18T22:34:22.483Z,5.10
2022-11-18T22:36:50.533Z,5.10
2022-11-18T22:39:19.065Z,5.10
2022-11-18T22:42:11.571Z,5.10
2022-11-18T22:44:39.597Z,5.00
2022-11-18T22:47:07.571Z,5.00
2022-11-18T22:49:35.602Z,4.90
2022-11-18T22:52:03.690Z,4.90
2022-11-18T22:54:38.849Z,4.90
2022-11-18T22:57:09.118Z,5.00
2022-11-18T22:59:37.287Z,5.00
2022-11-18T23:02:05.558Z,5.00
2022-11-18T23:04:33.566Z,5.10
2022-11-18T23:07:01.615Z,5.00
2022-11-18T23:09:29.811Z,5.00
2022-11-18T23:12:15.297Z,5.00
2022-11-18T23:14:44.765Z,5.00
2022-11-18T23:17:12.830Z,4.90
2022-11-18T23:19:43.745Z,4.90
2022-11-18T23:22:12.144Z,5.00
2022-11-18T23:24:40.263Z,4.90
2022-11-18T23:27:08.332Z,4.90
2022-11-18T23:29:36.441Z,4.90
2022-11-18T23:32:06.312Z,4.80
2022-11-18T23:34:34.306Z,4.80
2022-11-18T23:37:02.458Z,4.70
2022-11-18T23:39:30.585Z,4.70
2022-11-18T23:41:58.630Z,4.60
2022-11-18T23:44:40.531Z,4.60
2022-11-18T23:47:09.962Z,4.60
2022-11-18T23:49:37.981Z,4.60
2022-11-18T23:52:06.201Z,4.70
2022-11-18T23:54:34.267Z,4.60
2022-11-18T23:57:04.496Z,4.60
2022-11-18T23:59:33.040Z,4.60
